sensor_id;sensor_type;location;lat;lon;timestamp;P1;durP1;ratioP1;P2;durP2;ratioP2
35312;SDS011;21425;50.454;30.466;2022-09-12T00:00:30;32.28;;;18.27;;
35312;SDS011;21425;50.454;30.466;2022-09-12T00:02:56;28.60;;;18.40;;
35312;SDS011;21425;50.454;30.466;2022-09-12T00:05:22;33.65;;;18.63;;
35312;SDS011;21425;50.454;30.466;2022-09-12T00:07:48;30.45;;;18.55;;
35312;SDS011;21425;50.454;30.466;2022-09-12T00:10:14;27.92;;;17.55;;
35312;SDS011;21425;50.454;30.466;2022-09-12T00:12:40;31.48;;;18.50;;
35312;SDS011;21425;50.454;30.466;2022-09-12T00:15:06;32.42;;;19.65;;
35312;SDS011;21425;50.454;30.466;2022-09-12T00:17:36;31.10;;;18.58;;
35312;SDS011;21425;50.454;30.466;2022-09-12T00:20:05;28.23;;;17.08;;
35312;SDS011;21425;50.454;30.466;2022-09-12T00:22:32;28.10;;;17.55;;
35312;SDS011;21425;50.454;30.466;2022-09-12T00:24:58;25.23;;;16.27;;
35312;SDS011;21425;50.454;30.466;2022-09-12T00:27:24;27.13;;;17.58;;
35312;SDS011;21425;50.454;30.466;2022-09-12T00:29:50;29.42;;;17.90;;
35312;SDS011;21425;50.454;30.466;2022-09-12T00:32:16;28.75;;;18.27;;
35312;SDS011;21425;50.454;30.466;2022-09-12T00:34:41;27.58;;;17.85;;
35312;SDS011;21425;50.454;30.466;2022-09-12T00:37:07;28.48;;;17.38;;
35312;SDS011;21425;50.454;30.466;2022-09-12T00:39:33;33.38;;;18.30;;
35312;SDS011;21425;50.454;30.466;2022-09-12T00:41:59;28.27;;;17.38;;
35312;SDS011;21425;50.454;30.466;2022-09-12T00:47:09;28.33;;;19.23;;
35312;SDS011;21425;50.454;30.466;2022-09-12T00:52:15;29.50;;;18.50;;
35312;SDS011;21425;50.454;30.466;2022-09-12T00:55:06;32.40;;;19.17;;
35312;SDS011;21425;50.454;30.466;2022-09-12T00:57:48;31.77;;;19.75;;
35312;SDS011;21425;50.454;30.466;2022-09-12T01:00:20;33.30;;;19.52;;
35312;SDS011;21425;50.454;30.466;2022-09-12T01:02:49;28.13;;;18.50;;
35312;SDS011;21425;50.454;30.466;2022-09-12T01:05:18;26.50;;;17.38;;
35312;SDS011;21425;50.454;30.466;2022-09-12T01:07:45;26.35;;;18.27;;
35312;SDS011;21425;50.454;30.466;2022-09-12T01:10:14;31.92;;;18.23;;
35312;SDS011;21425;50.454;30.466;2022-09-12T01:12:40;26.65;;;16.50;;
35312;SDS011;21425;50.454;30.466;2022-09-12T01:15:08;23.58;;;16.52;;
35312;SDS011;21425;50.454;30.466;2022-09-12T01:20:21;25.98;;;16.05;;
35312;SDS011;21425;50.454;30.466;2022-09-12T01:23:10;21.60;;;13.95;;
35312;SDS011;21425;50.454;30.466;2022-09-12T01:28:49;20.10;;;12.43;;
35312;SDS011;21425;50.454;30.466;2022-09-12T01:32:07;18.33;;;11.77;;
35312;SDS011;21425;50.454;30.466;2022-09-12T01:34:35;15.68;;;10.73;;
35312;SDS011;21425;50.454;30.466;2022-09-12T01:37:28;15.50;;;11.02;;
35312;SDS011;21425;50.454;30.466;2022-09-12T01:40:11;13.68;;;8.68;;
35312;SDS011;21425;50.454;30.466;2022-09-12T01:43:31;11.82;;;8.00;;
35312;SDS011;21425;50.454;30.466;2022-09-12T01:45:45;10.13;;;5.90;;
35312;SDS011;21425;50.454;30.466;2022-09-12T01:48:18;14.40;;;7.28;;
35312;SDS011;21425;50.454;30.466;2022-09-12T01:50:52;8.73;;;6.13;;
35312;SDS011;21425;50.454;30.466;2022-09-12T01:53:41;9.75;;;5.70;;
35312;SDS011;21425;50.454;30.466;2022-09-12T01:56:14;8.07;;;5.40;;
35312;SDS011;21425;50.454;30.466;2022-09-12T01:58:49;9.65;;;6.00;;
35312;SDS011;21425;50.454;30.466;2022-09-12T02:01:16;9.50;;;5.57;;
35312;SDS011;21425;50.454;30.466;2022-09-12T02:03:49;8.33;;;5.10;;
35312;SDS011;21425;50.454;30.466;2022-09-12T02:06:26;7.57;;;5.55;;
35312;SDS011;21425;50.454;30.466;2022-09-12T02:09:05;8.93;;;6.07;;
35312;SDS011;21425;50.454;30.466;2022-09-12T02:11:39;8.13;;;5.55;;
35312;SDS011;21425;50.454;30.466;2022-09-12T02:14:11;7.30;;;5.25;;
35312;SDS011;21425;50.454;30.466;2022-09-12T02:16:59;7.28;;;4.95;;
35312;SDS011;21425;50.454;30.466;2022-09-12T02:19:36;6.53;;;4.53;;
35312;SDS011;21425;50.454;30.466;2022-09-12T02:22:12;6.75;;;4.57;;
35312;SDS011;21425;50.454;30.466;2022-09-12T02:24:42;8.88;;;5.47;;
35312;SDS011;21425;50.454;30.466;2022-09-12T02:27:22;7.82;;;4.65;;
35312;SDS011;21425;50.454;30.466;2022-09-12T02:29:54;7.50;;;5.35;;
35312;SDS011;21425;50.454;30.466;2022-09-12T02:32:29;8.95;;;5.60;;
35312;SDS011;21425;50.454;30.466;2022-09-12T02:35:07;9.35;;;5.40;;
35312;SDS011;21425;50.454;30.466;2022-09-12T02:40:23;7.83;;;4.77;;
35312;SDS011;21425;50.454;30.466;2022-09-12T02:42:49;7.80;;;5.22;;
35312;SDS011;21425;50.454;30.466;2022-09-12T02:45:15;8.32;;;4.65;;
35312;SDS011;21425;50.454;30.466;2022-09-12T02:50:14;8.15;;;5.25;;
35312;SDS011;21425;50.454;30.466;2022-09-12T02:52:39;7.78;;;5.18;;
35312;SDS011;21425;50.454;30.466;2022-09-12T02:55:06;7.35;;;4.88;;
35312;SDS011;21425;50.454;30.466;2022-09-12T02:57:35;12.15;;;5.38;;
35312;SDS011;21425;50.454;30.466;2022-09-12T03:00:02;12.77;;;5.40;;
35312;SDS011;21425;50.454;30.466;2022-09-12T03:18:47;6.15;;;3.88;;
35312;SDS011;21425;50.454;30.466;2022-09-12T03:26:52;5.63;;;3.50;;
35312;SDS011;21425;50.454;30.466;2022-09-12T03:29:22;5.72;;;4.00;;
35312;SDS011;21425;50.454;30.466;2022-09-12T03:31:51;6.03;;;3.38;;
35312;SDS011;21425;50.454;30.466;2022-09-12T03:34:19;4.75;;;3.15;;
35312;SDS011;21425;50.454;30.466;2022-09-12T03:36:46;5.38;;;3.40;;
35312;SDS011;21425;50.454;30.466;2022-09-12T03:39:13;5.55;;;3.30;;
35312;SDS011;21425;50.454;30.466;2022-09-12T03:41:39;4.28;;;1.95;;
35312;SDS011;21425;50.454;30.466;2022-09-12T03:44:04;1.42;;;0.93;;
35312;SDS011;21425;50.454;30.466;2022-09-12T03:46:30;2.17;;;1.00;;
35312;SDS011;21425;50.454;30.466;2022-09-12T03:48:56;1.80;;;0.70;;
35312;SDS011;21425;50.454;30.466;2022-09-12T03:51:22;2.58;;;0.65;;
35312;SDS011;21425;50.454;30.466;2022-09-12T03:53:47;0.70;;;0.50;;
35312;SDS011;21425;50.454;30.466;2022-09-12T03:56:13;0.40;;;0.40;;
35312;SDS011;21425;50.454;30.466;2022-09-12T03:58:39;0.60;;;0.40;;
35312;SDS011;21425;50.454;30.466;2022-09-12T04:03:37;0.20;;;0.20;;
35312;SDS011;21425;50.454;30.466;2022-09-12T04:06:04;0.70;;;0.50;;
35312;SDS011;21425;50.454;30.466;2022-09-12T04:08:30;0.57;;;0.38;;
35312;SDS011;21425;50.454;30.466;2022-09-12T04:11:01;0.88;;;0.47;;
35312;SDS011;21425;50.454;30.466;2022-09-12T04:13:34;0.20;;;0.20;;
35312;SDS011;21425;50.454;30.466;2022-09-12T04:16:01;0.50;;;0.30;;
35312;SDS011;21425;50.454;30.466;2022-09-12T04:18:28;1.88;;;0.50;;
35312;SDS011;21425;50.454;30.466;2022-09-12T04:20:54;0.43;;;0.43;;
35312;SDS011;21425;50.454;30.466;2022-09-12T04:23:20;0.47;;;0.30;;
35312;SDS011;21425;50.454;30.466;2022-09-12T04:25:53;0.38;;;0.38;;
35312;SDS011;21425;50.454;30.466;2022-09-12T04:28:19;0.30;;;0.30;;
35312;SDS011;21425;50.454;30.466;2022-09-12T04:30:45;2.05;;;0.40;;
35312;SDS011;21425;50.454;30.466;2022-09-12T04:33:11;2.45;;;0.85;;
35312;SDS011;21425;50.454;30.466;2022-09-12T04:35:36;0.85;;;0.50;;
35312;SDS011;21425;50.454;30.466;2022-09-12T04:38:02;0.60;;;0.50;;
35312;SDS011;21425;50.454;30.466;2022-09-12T04:40:30;0.40;;;0.40;;
35312;SDS011;21425;50.454;30.466;2022-09-12T04:42:57;3.53;;;0.70;;
35312;SDS011;21425;50.454;30.466;2022-09-12T04:45:23;2.88;;;0.60;;
35312;SDS011;21425;50.454;30.466;2022-09-12T04:47:49;1.05;;;0.60;;
35312;SDS011;21425;50.454;30.466;2022-09-12T04:50:15;1.02;;;0.70;;
35312;SDS011;21425;50.454;30.466;2022-09-12T04:52:40;1.17;;;0.75;;
35312;SDS011;21425;50.454;30.466;2022-09-12T04:55:07;1.25;;;0.73;;
35312;SDS011;21425;50.454;30.466;2022-09-12T04:57:33;3.28;;;0.95;;
35312;SDS011;21425;50.454;30.466;2022-09-12T04:59:59;1.80;;;0.90;;
35312;SDS011;21425;50.454;30.466;2022-09-12T05:02:25;2.33;;;0.55;;
35312;SDS011;21425;50.454;30.466;2022-09-12T05:04:51;2.25;;;0.88;;
35312;SDS011;21425;50.454;30.466;2022-09-12T05:07:17;2.63;;;0.57;;
35312;SDS011;21425;50.454;30.466;2022-09-12T05:09:43;0.82;;;0.50;;
35312;SDS011;21425;50.454;30.466;2022-09-12T05:12:09;1.95;;;0.70;;
35312;SDS011;21425;50.454;30.466;2022-09-12T05:14:35;1.55;;;0.70;;
35312;SDS011;21425;50.454;30.466;2022-09-12T05:17:01;5.13;;;0.98;;
35312;SDS011;21425;50.454;30.466;2022-09-12T05:19:30;3.15;;;0.82;;
35312;SDS011;21425;50.454;30.466;2022-09-12T05:21:56;2.95;;;1.00;;
35312;SDS011;21425;50.454;30.466;2022-09-12T05:24:22;1.38;;;0.85;;
35312;SDS011;21425;50.454;30.466;2022-09-12T05:26:48;3.67;;;0.95;;
35312;SDS011;21425;50.454;30.466;2022-09-12T05:29:14;3.70;;;0.73;;
35312;SDS011;21425;50.454;30.466;2022-09-12T05:31:40;1.23;;;0.80;;
35312;SDS011;21425;50.454;30.466;2022-09-12T05:34:05;4.35;;;0.75;;
35312;SDS011;21425;50.454;30.466;2022-09-12T05:36:33;4.90;;;1.10;;
35312;SDS011;21425;50.454;30.466;2022-09-12T05:38:59;2.15;;;1.13;;
35312;SDS011;21425;50.454;30.466;2022-09-12T05:41:26;1.90;;;1.15;;
35312;SDS011;21425;50.454;30.466;2022-09-12T05:43:58;1.83;;;1.20;;
35312;SDS011;21425;50.454;30.466;2022-09-12T05:46:25;3.83;;;1.33;;
35312;SDS011;21425;50.454;30.466;2022-09-12T05:48:53;2.35;;;1.10;;
35312;SDS011;21425;50.454;30.466;2022-09-12T05:51:23;1.80;;;1.20;;
35312;SDS011;21425;50.454;30.466;2022-09-12T05:53:52;3.05;;;1.27;;
35312;SDS011;21425;50.454;30.466;2022-09-12T05:56:20;2.53;;;1.60;;
35312;SDS011;21425;50.454;30.466;2022-09-12T05:58:51;1.67;;;1.23;;
35312;SDS011;21425;50.454;30.466;2022-09-12T06:01:21;2.13;;;1.55;;
35312;SDS011;21425;50.454;30.466;2022-09-12T06:03:48;4.85;;;1.33;;
35312;SDS011;21425;50.454;30.466;2022-09-12T06:06:16;3.20;;;1.40;;
35312;SDS011;21425;50.454;30.466;2022-09-12T06:08:44;1.77;;;1.25;;
35312;SDS011;21425;50.454;30.466;2022-09-12T06:11:12;4.40;;;1.27;;
35312;SDS011;21425;50.454;30.466;2022-09-12T06:13:40;3.88;;;1.40;;
35312;SDS011;21425;50.454;30.466;2022-09-12T06:16:07;1.88;;;1.25;;
35312;SDS011;21425;50.454;30.466;2022-09-12T06:18:34;4.53;;;1.20;;
35312;SDS011;21425;50.454;30.466;2022-09-12T06:21:01;3.53;;;1.50;;
35312;SDS011;21425;50.454;30.466;2022-09-12T06:23:31;3.35;;;1.20;;
35312;SDS011;21425;50.454;30.466;2022-09-12T06:25:57;1.20;;;0.77;;
35312;SDS011;21425;50.454;30.466;2022-09-12T06:28:23;4.35;;;1.63;;
35312;SDS011;21425;50.454;30.466;2022-09-12T06:30:49;1.77;;;1.05;;
35312;SDS011;21425;50.454;30.466;2022-09-12T06:33:15;1.23;;;0.70;;
35312;SDS011;21425;50.454;30.466;2022-09-12T06:35:41;2.13;;;0.88;;
35312;SDS011;21425;50.454;30.466;2022-09-12T06:38:07;3.17;;;0.90;;
35312;SDS011;21425;50.454;30.466;2022-09-12T06:40:33;2.50;;;1.10;;
35312;SDS011;21425;50.454;30.466;2022-09-12T06:43:04;4.38;;;1.10;;
35312;SDS011;21425;50.454;30.466;2022-09-12T06:45:30;2.30;;;0.90;;
35312;SDS011;21425;50.454;30.466;2022-09-12T06:47:56;3.00;;;1.20;;
35312;SDS011;21425;50.454;30.466;2022-09-12T06:50:22;1.90;;;1.10;;
35312;SDS011;21425;50.454;30.466;2022-09-12T06:52:48;1.67;;;0.90;;
35312;SDS011;21425;50.454;30.466;2022-09-12T06:55:15;3.47;;;1.08;;
35312;SDS011;21425;50.454;30.466;2022-09-12T06:57:41;2.75;;;1.17;;
35312;SDS011;21425;50.454;30.466;2022-09-12T07:00:08;4.60;;;1.13;;
35312;SDS011;21425;50.454;30.466;2022-09-12T07:02:34;1.50;;;1.02;;
35312;SDS011;21425;50.454;30.466;2022-09-12T07:04:59;1.90;;;1.10;;
35312;SDS011;21425;50.454;30.466;2022-09-12T07:07:25;2.78;;;1.40;;
35312;SDS011;21425;50.454;30.466;2022-09-12T07:09:50;3.92;;;1.58;;
35312;SDS011;21425;50.454;30.466;2022-09-12T07:12:16;2.53;;;1.92;;
35312;SDS011;21425;50.454;30.466;2022-09-12T07:14:42;2.88;;;1.75;;
35312;SDS011;21425;50.454;30.466;2022-09-12T07:17:08;3.58;;;1.80;;
35312;SDS011;21425;50.454;30.466;2022-09-12T07:19:33;1.90;;;1.60;;
35312;SDS011;21425;50.454;30.466;2022-09-12T07:21:59;2.28;;;1.48;;
35312;SDS011;21425;50.454;30.466;2022-09-12T07:24:25;6.10;;;1.98;;
35312;SDS011;21425;50.454;30.466;2022-09-12T07:26:51;5.65;;;1.73;;
35312;SDS011;21425;50.454;30.466;2022-09-12T07:29:16;3.13;;;1.77;;
35312;SDS011;21425;50.454;30.466;2022-09-12T07:31:42;5.00;;;1.75;;
35312;SDS011;21425;50.454;30.466;2022-09-12T07:34:08;4.00;;;1.63;;
35312;SDS011;21425;50.454;30.466;2022-09-12T07:36:34;5.22;;;1.55;;
35312;SDS011;21425;50.454;30.466;2022-09-12T07:39:00;2.80;;;1.15;;
35312;SDS011;21425;50.454;30.466;2022-09-12T07:41:26;3.97;;;1.25;;
35312;SDS011;21425;50.454;30.466;2022-09-12T07:43:55;4.03;;;1.50;;
35312;SDS011;21425;50.454;30.466;2022-09-12T07:46:22;2.65;;;1.40;;
35312;SDS011;21425;50.454;30.466;2022-09-12T07:48:49;1.90;;;1.30;;
35312;SDS011;21425;50.454;30.466;2022-09-12T07:51:16;4.82;;;1.27;;
35312;SDS011;21425;50.454;30.466;2022-09-12T07:53:42;2.45;;;1.25;;
35312;SDS011;21425;50.454;30.466;2022-09-12T07:56:09;3.30;;;0.90;;
35312;SDS011;21425;50.454;30.466;2022-09-12T07:58:36;1.98;;;1.02;;
35312;SDS011;21425;50.454;30.466;2022-09-12T08:03:34;3.60;;;1.33;;
35312;SDS011;21425;50.454;30.466;2022-09-12T08:08:30;2.47;;;1.17;;
35312;SDS011;21425;50.454;30.466;2022-09-12T08:10:56;2.08;;;1.00;;
35312;SDS011;21425;50.454;30.466;2022-09-12T08:13:23;5.30;;;1.25;;
35312;SDS011;21425;50.454;30.466;2022-09-12T08:15:50;2.05;;;1.50;;
35312;SDS011;21425;50.454;30.466;2022-09-12T08:18:16;2.53;;;1.30;;
35312;SDS011;21425;50.454;30.466;2022-09-12T08:20:41;3.92;;;1.10;;
35312;SDS011;21425;50.454;30.466;2022-09-12T08:23:07;6.55;;;2.05;;
35312;SDS011;21425;50.454;30.466;2022-09-12T08:25:32;3.75;;;1.75;;
35312;SDS011;21425;50.454;30.466;2022-09-12T08:27:58;4.03;;;1.42;;
35312;SDS011;21425;50.454;30.466;2022-09-12T08:30:25;2.42;;;1.30;;
35312;SDS011;21425;50.454;30.466;2022-09-12T08:32:51;4.70;;;1.73;;
35312;SDS011;21425;50.454;30.466;2022-09-12T08:35:16;3.55;;;1.30;;
35312;SDS011;21425;50.454;30.466;2022-09-12T08:37:42;2.50;;;1.50;;
35312;SDS011;21425;50.454;30.466;2022-09-12T08:40:10;2.92;;;1.80;;
35312;SDS011;21425;50.454;30.466;2022-09-12T08:45:35;3.28;;;1.50;;
35312;SDS011;21425;50.454;30.466;2022-09-12T08:48:08;4.97;;;1.75;;
35312;SDS011;21425;50.454;30.466;2022-09-12T08:50:36;5.72;;;1.60;;
35312;SDS011;21425;50.454;30.466;2022-09-12T08:53:20;3.08;;;1.40;;
35312;SDS011;21425;50.454;30.466;2022-09-12T08:55:52;1.88;;;1.40;;
35312;SDS011;21425;50.454;30.466;2022-09-12T08:58:23;2.47;;;1.63;;
35312;SDS011;21425;50.454;30.466;2022-09-12T09:00:58;3.97;;;1.60;;
35312;SDS011;21425;50.454;30.466;2022-09-12T09:11:59;6.20;;;1.48;;
35312;SDS011;21425;50.454;30.466;2022-09-12T09:14:49;2.55;;;1.80;;
35312;SDS011;21425;50.454;30.466;2022-09-12T09:17:28;2.40;;;1.50;;
35312;SDS011;21425;50.454;30.466;2022-09-12T09:20:09;3.10;;;1.77;;
35312;SDS011;21425;50.454;30.466;2022-09-12T09:28:22;3.15;;;1.80;;
35312;SDS011;21425;50.454;30.466;2022-09-12T09:30:51;3.30;;;1.70;;
35312;SDS011;21425;50.454;30.466;2022-09-12T09:33:24;2.92;;;1.92;;
35312;SDS011;21425;50.454;30.466;2022-09-12T09:36:19;3.13;;;1.85;;
35312;SDS011;21425;50.454;30.466;2022-09-12T09:44:15;3.60;;;1.70;;
35312;SDS011;21425;50.454;30.466;2022-09-12T09:46:41;5.80;;;1.83;;
35312;SDS011;21425;50.454;30.466;2022-09-12T09:49:08;2.13;;;1.40;;
35312;SDS011;21425;50.454;30.466;2022-09-12T09:51:38;5.68;;;1.90;;
35312;SDS011;21425;50.454;30.466;2022-09-12T09:54:19;2.00;;;1.60;;
35312;SDS011;21425;50.454;30.466;2022-09-12T09:56:50;3.58;;;2.00;;
35312;SDS011;21425;50.454;30.466;2022-09-12T09:59:19;3.10;;;1.98;;
35312;SDS011;21425;50.454;30.466;2022-09-12T10:01:51;2.55;;;1.85;;
35312;SDS011;21425;50.454;30.466;2022-09-12T10:04:25;4.78;;;1.63;;
35312;SDS011;21425;50.454;30.466;2022-09-12T10:06:55;2.33;;;1.50;;
35312;SDS011;21425;50.454;30.466;2022-09-12T10:09:24;6.53;;;1.60;;
35312;SDS011;21425;50.454;30.466;2022-09-12T10:11:52;3.33;;;1.55;;
35312;SDS011;21425;50.454;30.466;2022-09-12T10:14:27;2.47;;;1.20;;
35312;SDS011;21425;50.454;30.466;2022-09-12T10:17:20;4.22;;;2.20;;
35312;SDS011;21425;50.454;30.466;2022-09-12T10:19:55;2.95;;;1.80;;
35312;SDS011;21425;50.454;30.466;2022-09-12T10:22:22;2.88;;;1.70;;
35312;SDS011;21425;50.454;30.466;2022-09-12T10:24:51;3.03;;;1.80;;
35312;SDS011;21425;50.454;30.466;2022-09-12T10:27:23;5.75;;;1.98;;
35312;SDS011;21425;50.454;30.466;2022-09-12T10:29:55;3.08;;;1.52;;
35312;SDS011;21425;50.454;30.466;2022-09-12T10:32:35;3.38;;;2.03;;
35312;SDS011;21425;50.454;30.466;2022-09-12T10:35:24;2.83;;;1.75;;
35312;SDS011;21425;50.454;30.466;2022-09-12T10:43:00;3.20;;;1.80;;
35312;SDS011;21425;50.454;30.466;2022-09-12T10:45:32;3.30;;;1.83;;
35312;SDS011;21425;50.454;30.466;2022-09-12T10:48:00;4.20;;;1.95;;
35312;SDS011;21425;50.454;30.466;2022-09-12T10:50:48;3.28;;;1.90;;
35312;SDS011;21425;50.454;30.466;2022-09-12T10:53:17;2.63;;;1.52;;
35312;SDS011;21425;50.454;30.466;2022-09-12T11:01:59;2.20;;;1.40;;
35312;SDS011;21425;50.454;30.466;2022-09-12T11:10:05;3.28;;;1.98;;
35312;SDS011;21425;50.454;30.466;2022-09-12T11:24:17;5.07;;;3.10;;
35312;SDS011;21425;50.454;30.466;2022-09-12T11:29:53;6.82;;;3.63;;
35312;SDS011;21425;50.454;30.466;2022-09-12T11:46:00;6.82;;;2.83;;
35312;SDS011;21425;50.454;30.466;2022-09-12T11:54:35;4.38;;;2.40;;
35312;SDS011;21425;50.454;30.466;2022-09-12T11:59:39;5.43;;;2.38;;
35312;SDS011;21425;50.454;30.466;2022-09-12T12:02:21;8.02;;;2.40;;
35312;SDS011;21425;50.454;30.466;2022-09-12T12:05:01;6.15;;;3.30;;
35312;SDS011;21425;50.454;30.466;2022-09-12T12:07:42;8.07;;;3.97;;
35312;SDS011;21425;50.454;30.466;2022-09-12T12:10:31;10.45;;;3.80;;
35312;SDS011;21425;50.454;30.466;2022-09-12T12:13:02;9.02;;;3.22;;
35312;SDS011;21425;50.454;30.466;2022-09-12T12:15:35;10.02;;;3.78;;
35312;SDS011;21425;50.454;30.466;2022-09-12T12:20:29;4.95;;;2.15;;
35312;SDS011;21425;50.454;30.466;2022-09-12T12:22:54;4.50;;;2.30;;
35312;SDS011;21425;50.454;30.466;2022-09-12T12:25:22;5.38;;;2.17;;
35312;SDS011;21425;50.454;30.466;2022-09-12T12:27:57;5.88;;;2.25;;
35312;SDS011;21425;50.454;30.466;2022-09-12T12:38:11;8.00;;;3.63;;
35312;SDS011;21425;50.454;30.466;2022-09-12T12:40:51;9.55;;;4.00;;
35312;SDS011;21425;50.454;30.466;2022-09-12T12:43:27;10.50;;;3.40;;
35312;SDS011;21425;50.454;30.466;2022-09-12T12:46:05;8.70;;;3.55;;
35312;SDS011;21425;50.454;30.466;2022-09-12T12:48:34;8.15;;;3.30;;
35312;SDS011;21425;50.454;30.466;2022-09-12T12:53:53;7.60;;;3.63;;
35312;SDS011;21425;50.454;30.466;2022-09-12T12:56:26;9.68;;;3.15;;
35312;SDS011;21425;50.454;30.466;2022-09-12T12:58:59;7.30;;;3.28;;
35312;SDS011;21425;50.454;30.466;2022-09-12T13:01:28;7.00;;;2.90;;
35312;SDS011;21425;50.454;30.466;2022-09-12T13:03:55;6.78;;;2.72;;
35312;SDS011;21425;50.454;30.466;2022-09-12T13:09:06;5.53;;;2.40;;
35312;SDS011;21425;50.454;30.466;2022-09-12T13:11:54;3.67;;;2.08;;
35312;SDS011;21425;50.454;30.466;2022-09-12T13:17:00;4.72;;;2.60;;
35312;SDS011;21425;50.454;30.466;2022-09-12T13:19:30;4.40;;;2.75;;
35312;SDS011;21425;50.454;30.466;2022-09-12T13:22:04;4.35;;;2.22;;
35312;SDS011;21425;50.454;30.466;2022-09-12T13:24:32;5.68;;;2.55;;
35312;SDS011;21425;50.454;30.466;2022-09-12T13:27:15;10.55;;;3.67;;
35312;SDS011;21425;50.454;30.466;2022-09-12T13:30:11;5.22;;;2.83;;
35312;SDS011;21425;50.454;30.466;2022-09-12T13:32:39;7.15;;;3.30;;
35312;SDS011;21425;50.454;30.466;2022-09-12T13:35:08;6.78;;;2.72;;
35312;SDS011;21425;50.454;30.466;2022-09-12T13:37:44;7.82;;;3.25;;
35312;SDS011;21425;50.454;30.466;2022-09-12T13:40:28;8.85;;;3.47;;
35312;SDS011;21425;50.454;30.466;2022-09-12T13:43:16;7.00;;;3.05;;
35312;SDS011;21425;50.454;30.466;2022-09-12T13:45:50;6.88;;;3.00;;
35312;SDS011;21425;50.454;30.466;2022-09-12T13:48:18;5.95;;;2.70;;
35312;SDS011;21425;50.454;30.466;2022-09-12T13:55:54;3.30;;;2.20;;
35312;SDS011;21425;50.454;30.466;2022-09-12T13:58:24;3.38;;;2.28;;
35312;SDS011;21425;50.454;30.466;2022-09-12T14:01:09;2.92;;;1.90;;
35312;SDS011;21425;50.454;30.466;2022-09-12T14:03:39;5.97;;;2.72;;
35312;SDS011;21425;50.454;30.466;2022-09-12T14:06:45;4.85;;;2.67;;
35312;SDS011;21425;50.454;30.466;2022-09-12T14:09:15;5.30;;;2.95;;
35312;SDS011;21425;50.454;30.466;2022-09-12T14:11:50;3.45;;;2.67;;
35312;SDS011;21425;50.454;30.466;2022-09-12T14:14:18;5.10;;;2.22;;
35312;SDS011;21425;50.454;30.466;2022-09-12T14:16:51;4.88;;;2.80;;
35312;SDS011;21425;50.454;30.466;2022-09-12T14:19:18;6.25;;;2.47;;
35312;SDS011;21425;50.454;30.466;2022-09-12T14:21:47;2.78;;;1.38;;
35312;SDS011;21425;50.454;30.466;2022-09-12T14:24:14;5.60;;;2.65;;
35312;SDS011;21425;50.454;30.466;2022-09-12T14:26:41;4.47;;;1.60;;
35312;SDS011;21425;50.454;30.466;2022-09-12T14:29:08;6.30;;;2.75;;
35312;SDS011;21425;50.454;30.466;2022-09-12T14:31:38;4.93;;;2.47;;
35312;SDS011;21425;50.454;30.466;2022-09-12T14:34:14;6.88;;;3.53;;
35312;SDS011;21425;50.454;30.466;2022-09-12T14:36:47;7.32;;;3.60;;
35312;SDS011;21425;50.454;30.466;2022-09-12T14:39:20;5.63;;;3.38;;
35312;SDS011;21425;50.454;30.466;2022-09-12T14:44:41;6.18;;;3.00;;
35312;SDS011;21425;50.454;30.466;2022-09-12T14:47:20;5.25;;;3.50;;
35312;SDS011;21425;50.454;30.466;2022-09-12T14:49:48;9.95;;;5.00;;
35312;SDS011;21425;50.454;30.466;2022-09-12T14:52:22;7.10;;;4.82;;
35312;SDS011;21425;50.454;30.466;2022-09-12T14:55:28;11.65;;;5.85;;
35312;SDS011;21425;50.454;30.466;2022-09-12T14:57:40;6.95;;;4.68;;
35312;SDS011;21425;50.454;30.466;2022-09-12T15:02:37;7.97;;;5.60;;
35312;SDS011;21425;50.454;30.466;2022-09-12T15:07:33;9.15;;;6.13;;
35312;SDS011;21425;50.454;30.466;2022-09-12T15:10:00;8.93;;;5.60;;
35312;SDS011;21425;50.454;30.466;2022-09-12T15:12:27;9.02;;;5.63;;
35312;SDS011;21425;50.454;30.466;2022-09-12T15:15:03;16.35;;;7.00;;
35312;SDS011;21425;50.454;30.466;2022-09-12T15:17:37;8.50;;;5.75;;
35312;SDS011;21425;50.454;30.466;2022-09-12T15:20:03;11.02;;;5.75;;
35312;SDS011;21425;50.454;30.466;2022-09-12T15:22:29;10.13;;;5.97;;
35312;SDS011;21425;50.454;30.466;2022-09-12T15:24:57;10.48;;;5.97;;
35312;SDS011;21425;50.454;30.466;2022-09-12T15:27:23;10.88;;;6.47;;
35312;SDS011;21425;50.454;30.466;2022-09-12T15:29:50;8.45;;;6.20;;
35312;SDS011;21425;50.454;30.466;2022-09-12T15:32:22;12.23;;;6.25;;
35312;SDS011;21425;50.454;30.466;2022-09-12T15:34:49;10.63;;;6.40;;
35312;SDS011;21425;50.454;30.466;2022-09-12T15:37:16;8.38;;;5.50;;
35312;SDS011;21425;50.454;30.466;2022-09-12T15:39:44;7.97;;;5.60;;
35312;SDS011;21425;50.454;30.466;2022-09-12T15:42:10;9.48;;;5.43;;
35312;SDS011;21425;50.454;30.466;2022-09-12T15:44:36;7.93;;;5.60;;
35312;SDS011;21425;50.454;30.466;2022-09-12T15:47:02;11.65;;;6.40;;
35312;SDS011;21425;50.454;30.466;2022-09-12T15:49:28;11.18;;;5.75;;
35312;SDS011;21425;50.454;30.466;2022-09-12T15:51:53;10.60;;;6.60;;
35312;SDS011;21425;50.454;30.466;2022-09-12T15:54:19;11.52;;;6.75;;
35312;SDS011;21425;50.454;30.466;2022-09-12T15:56:45;9.85;;;7.00;;
35312;SDS011;21425;50.454;30.466;2022-09-12T15:59:11;11.80;;;6.00;;
35312;SDS011;21425;50.454;30.466;2022-09-12T16:01:37;11.15;;;6.43;;
35312;SDS011;21425;50.454;30.466;2022-09-12T16:04:03;12.15;;;6.90;;
35312;SDS011;21425;50.454;30.466;2022-09-12T16:06:51;9.63;;;6.18;;
35312;SDS011;21425;50.454;30.466;2022-09-12T16:09:18;10.57;;;6.72;;
35312;SDS011;21425;50.454;30.466;2022-09-12T16:11:44;13.18;;;7.50;;
35312;SDS011;21425;50.454;30.466;2022-09-12T16:14:13;12.35;;;6.95;;
35312;SDS011;21425;50.454;30.466;2022-09-12T16:16:40;15.95;;;8.10;;
35312;SDS011;21425;50.454;30.466;2022-09-12T16:19:06;11.55;;;7.13;;
35312;SDS011;21425;50.454;30.466;2022-09-12T16:21:33;9.50;;;6.43;;
35312;SDS011;21425;50.454;30.466;2022-09-12T16:23:59;12.63;;;6.72;;
35312;SDS011;21425;50.454;30.466;2022-09-12T16:26:25;11.00;;;7.32;;
35312;SDS011;21425;50.454;30.466;2022-09-12T16:28:54;14.07;;;7.43;;
35312;SDS011;21425;50.454;30.466;2022-09-12T16:31:23;12.27;;;6.78;;
35312;SDS011;21425;50.454;30.466;2022-09-12T16:33:49;9.93;;;7.10;;
35312;SDS011;21425;50.454;30.466;2022-09-12T16:36:17;11.40;;;7.07;;
35312;SDS011;21425;50.454;30.466;2022-09-12T16:38:48;13.82;;;6.68;;
35312;SDS011;21425;50.454;30.466;2022-09-12T16:41:15;10.80;;;7.18;;
35312;SDS011;21425;50.454;30.466;2022-09-12T16:43:42;10.50;;;7.45;;
35312;SDS011;21425;50.454;30.466;2022-09-12T16:48:35;16.85;;;7.60;;
35312;SDS011;21425;50.454;30.466;2022-09-12T16:51:02;12.43;;;7.93;;
35312;SDS011;21425;50.454;30.466;2022-09-12T16:53:31;13.88;;;8.05;;
35312;SDS011;21425;50.454;30.466;2022-09-12T16:55:58;12.23;;;7.68;;
35312;SDS011;21425;50.454;30.466;2022-09-12T16:58:23;10.27;;;7.47;;
35312;SDS011;21425;50.454;30.466;2022-09-12T17:00:57;12.60;;;7.25;;
35312;SDS011;21425;50.454;30.466;2022-09-12T17:03:24;10.63;;;7.00;;
35312;SDS011;21425;50.454;30.466;2022-09-12T17:05:56;10.40;;;7.18;;
35312;SDS011;21425;50.454;30.466;2022-09-12T17:08:23;11.90;;;7.70;;
35312;SDS011;21425;50.454;30.466;2022-09-12T17:10:48;13.43;;;8.43;;
35312;SDS011;21425;50.454;30.466;2022-09-12T17:13:14;12.43;;;8.18;;
35312;SDS011;21425;50.454;30.466;2022-09-12T17:15:40;16.52;;;8.57;;
35312;SDS011;21425;50.454;30.466;2022-09-12T17:18:06;15.35;;;6.95;;
35312;SDS011;21425;50.454;30.466;2022-09-12T17:20:34;12.85;;;7.00;;
35312;SDS011;21425;50.454;30.466;2022-09-12T17:23:00;13.63;;;7.53;;